Andersen Air Force Base Andersen GU
ICAO: PGUA
IATA:
Category: MediumMariana Island
Scheduled Services: 627

Elevation: 13.5839996337891 ft
TransAlt. 18000 ft.

Airport Communications:
GUAM APP/DEP:118.7
AMC COMD POST:128
ATIS:118.175
GND:121.7
GUAM CERAP:118.7
13AF AOC:23.93
PMSV METRO:34.46
36 ABW COMD POST:31.1
PTD:139.3
TWR:126.2

PGUA Zoom In..

If you have problems with the map follow the link
https://www.worldairports.se/pages/airport.php?
ICAO=PGUA

Runways:

(A) RW 06L length 10527 ft width 200 ft
ILS 109.30 / hdg 64

(B) RW 06R length 11200 ft width 200 ft
ILS 110.10 / hdg 64

(C) RW 24L length 11200 ft width 200 ft
ILS 110.10 / hdg 244

(D) RW 24R length 10527 ft width 200 ft
ILS 109.30 / hdg 244

Location; PGUA
Day. 21 / Time. 10.24 Zulu
* Altimeter: 29.98
* Temperature: 25° c. 77°f.
* Wind from: 060° Speed 16 kn with Gusts up to 20 kn.
Dewpoint: 23° c.
Visibility: 7 Statute Miles.
Clouds: Broken 200 ft.
Clouds: Overcast 500 ft.
Conditions: Light Rain.

PGUA 211024Z 06016G20KT 7SM -RA BKN002 OVC005 25/23 A2998 RMK SLP143 $


Wind From 060°
Speed 16 kn.

 
 
jpsmedia worldairports.se 2020   terms of use